Time;durP1;ratioP1;P1;durP2;ratioP2;P2;SDS_P1;SDS_P2;PMS_P1;PMS_P2;Temp;Humidity;BMP_temperature;BMP_pressure;BME280_temperature;BME280_humidity;BME280_pressure;Samples;Min_cycle;Max_cycle;Signal;HPM_P1;HPM_P2
2022/02/06 00:02:23;;;;;;;13.80;8.60;;;3.40;99.90;;;;;;5091768;28;20567;-74
2022/02/06 00:04:52;;;;;;;12.00;8.80;;;3.40;99.90;;;;;;5091249;28;20680;-73
2022/02/06 00:07:19;;;;;;;10.70;7.50;;;3.30;99.90;;;;;;5091285;28;20688;-73
2022/02/06 00:09:47;;;;;;;13.03;8.20;;;3.20;99.90;;;;;;5091250;28;20547;-73
2022/02/06 00:12:14;;;;;;;10.50;8.13;;;3.20;99.90;;;;;;5092014;28;20209;-72
2022/02/06 00:14:41;;;;;;;10.50;6.87;;;3.20;99.90;;;;;;5091291;28;20625;-73
2022/02/06 00:17:09;;;;;;;12.00;8.10;;;3.20;99.90;;;;;;5091700;28;20202;-73
2022/02/06 00:19:38;;;;;;;9.63;6.47;;;3.30;99.90;;;;;;5090892;28;20233;-72
2022/02/06 00:22:09;;;;;;;9.60;6.40;;;3.30;99.90;;;;;;5091581;28;20256;-73
2022/02/06 00:24:43;;;;;;;11.10;6.57;;;3.20;99.90;;;;;;5091182;28;20620;-73
2022/02/06 00:27:16;;;;;;;10.33;6.27;;;3.20;99.90;;;;;;5091716;28;20580;-72
2022/02/06 00:29:52;;;;;;;11.00;6.20;;;3.20;99.90;;;;;;5091083;28;20255;-73
2022/02/06 00:32:31;;;;;;;9.17;6.23;;;3.10;99.90;;;;;;5091396;28;20213;-81
2022/02/06 00:35:21;;;;;;;9.33;5.87;;;3.10;99.90;;;;;;5091155;28;20205;-72
2022/02/06 00:38:07;;;;;;;8.30;5.80;;;3.10;99.90;;;;;;5090690;28;20217;-73
2022/02/06 00:40:50;;;;;;;11.70;6.83;;;3.10;99.90;;;;;;5090804;28;20217;-72
2022/02/06 00:43:17;;;;;;;8.30;5.77;;;3.10;99.90;;;;;;5091152;28;20201;-70
2022/02/06 00:45:44;;;;;;;9.63;6.57;;;3.10;99.90;;;;;;5090854;28;20201;-71
2022/02/06 00:48:12;;;;;;;8.83;6.33;;;3.10;99.90;;;;;;5090911;28;20715;-71
2022/02/06 00:50:44;;;;;;;8.50;5.80;;;3.10;99.90;;;;;;5090773;28;20661;-71
2022/02/06 00:53:17;;;;;;;10.07;6.70;;;3.10;99.90;;;;;;5091048;28;20206;-71
2022/02/06 00:55:44;;;;;;;9.23;6.13;;;3.10;99.90;;;;;;5090671;28;20296;-72
2022/02/06 00:58:12;;;;;;;9.60;6.93;;;3.00;99.90;;;;;;5091300;28;20255;-71
2022/02/06 01:00:39;;;;;;;11.43;6.30;;;3.00;99.90;;;;;;5090570;28;20202;-72
2022/02/06 01:03:06;;;;;;;10.40;6.77;;;3.00;99.90;;;;;;5090762;28;20251;-71
2022/02/06 01:05:33;;;;;;;7.97;6.63;;;3.00;99.90;;;;;;5090420;28;20201;-71
2022/02/06 01:08:00;;;;;;;9.20;6.97;;;3.00;99.90;;;;;;5090903;28;20201;-71
2022/02/06 01:10:28;;;;;;;10.70;7.17;;;3.00;99.90;;;;;;5091141;28;20217;-71
2022/02/06 01:13:00;;;;;;;10.70;7.97;;;2.90;99.90;;;;;;5091118;28;20247;-72
2022/02/06 01:15:32;;;;;;;13.93;8.60;;;2.90;99.90;;;;;;5091158;28;20213;-71
2022/02/06 01:18:03;;;;;;;8.60;6.60;;;2.90;99.90;;;;;;5090563;28;20243;-71
2022/02/06 01:20:34;;;;;;;10.07;7.07;;;2.90;99.90;;;;;;5092486;28;20708;-71
2022/02/06 01:23:06;;;;;;;9.63;7.63;;;2.90;99.90;;;;;;5095135;28;20205;-72
2022/02/06 01:25:40;;;;;;;13.23;7.50;;;2.80;99.90;;;;;;5094693;28;20201;-71
2022/02/06 01:28:11;;;;;;;9.93;7.10;;;2.70;99.90;;;;;;5095080;28;20200;-71
2022/02/06 01:30:46;;;;;;;11.23;6.53;;;2.70;99.90;;;;;;5094515;28;20245;-72
2022/02/06 01:33:18;;;;;;;9.40;6.90;;;2.80;99.90;;;;;;5094637;28;20656;-72
2022/02/06 01:35:51;;;;;;;13.60;7.50;;;2.70;99.90;;;;;;5094264;28;20197;-72
2022/02/06 01:38:23;;;;;;;13.00;6.43;;;2.70;99.90;;;;;;5094574;28;20259;-72
2022/02/06 01:41:01;;;;;;;11.23;7.67;;;2.70;99.90;;;;;;5094165;28;20688;-71
2022/02/06 01:43:36;;;;;;;7.77;6.93;;;2.80;99.90;;;;;;5094714;28;20208;-72
2022/02/06 01:46:21;;;;;;;8.30;6.07;;;2.80;99.90;;;;;;5094533;28;20262;-72
2022/02/06 02:00:30;;;;;;;12.13;7.67;;;2.70;99.90;;;;;;5094695;28;20628;-82
2022/02/06 02:00:41;;;;;;;8.50;7.37;;;2.60;99.90;;;;;;5094161;28;20244;-71
2022/02/06 02:03:14;;;;;;;8.80;6.83;;;2.60;99.90;;;;;;5094463;28;20205;-70
2022/02/06 02:11:39;;;;;;;11.50;7.43;;;3.00;99.90;;;;;;5093757;28;20206;-76
2022/02/06 02:14:30;;;;;;;9.30;7.30;;;3.10;99.90;;;;;;5094145;28;20289;-71
2022/02/06 02:20:10;;;;;;;12.93;8.80;;;3.20;99.90;;;;;;5082804;28;20272;-70
2022/02/06 02:31:24;;;;;;;11.83;7.60;;;3.20;99.90;;;;;;5031479;28;20233;-72
2022/02/06 02:45:15;;;;;;;9.57;6.90;;;2.90;99.90;;;;;;5086073;28;20244;-72
2022/02/06 02:47:46;;;;;;;13.53;8.10;;;2.90;99.90;;;;;;5093191;28;20198;-71
2022/02/06 02:50:16;;;;;;;11.77;6.20;;;2.80;99.90;;;;;;5093429;28;20208;-71
2022/02/06 02:53:06;;;;;;;9.47;6.57;;;2.80;99.90;;;;;;5092922;28;20198;-71
2022/02/06 02:55:47;;;;;;;9.13;6.93;;;2.80;99.90;;;;;;5092927;28;20225;-71
2022/02/06 02:58:25;;;;;;;7.93;5.87;;;2.70;99.90;;;;;;5093090;28;20292;-72
2022/02/06 03:01:01;;;;;;;9.20;6.30;;;2.70;99.90;;;;;;5092662;28;20724;-71
2022/02/06 03:03:30;;;;;;;10.10;6.37;;;2.80;99.90;;;;;;5093418;28;20300;-79
2022/02/06 03:06:00;;;;;;;11.53;6.63;;;2.70;99.90;;;;;;5093460;28;20227;-71
2022/02/06 03:08:27;;;;;;;8.53;6.40;;;2.70;99.90;;;;;;5093499;28;20206;-72
2022/02/06 03:10:58;;;;;;;11.40;7.00;;;2.60;99.90;;;;;;5093029;28;20209;-78
2022/02/06 03:13:34;;;;;;;9.47;7.33;;;2.60;99.90;;;;;;5093125;28;20205;-70
2022/02/06 03:16:14;;;;;;;7.33;6.30;;;2.60;99.90;;;;;;5093011;28;20205;-77
2022/02/06 03:18:46;;;;;;;10.77;6.97;;;2.60;99.90;;;;;;5092407;28;20276;-70
2022/02/06 03:21:18;;;;;;;13.07;6.77;;;2.50;99.90;;;;;;5092871;28;20213;-70
2022/02/06 03:23:50;;;;;;;7.57;5.17;;;2.60;99.90;;;;;;5092362;28;20212;-70
2022/02/06 03:26:20;;;;;;;10.00;6.70;;;2.60;99.90;;;;;;5092564;28;20587;-70
2022/02/06 03:28:48;;;;;;;6.67;5.57;;;2.60;99.90;;;;;;5092057;28;20201;-69
2022/02/06 03:31:15;;;;;;;6.73;6.03;;;2.60;99.90;;;;;;5074106;28;20259;-71
2022/02/06 03:33:42;;;;;;;11.77;7.93;;;2.60;99.90;;;;;;5071796;28;20206;-70
2022/02/06 03:36:09;;;;;;;9.20;6.43;;;2.60;99.90;;;;;;5072201;28;20205;-69
2022/02/06 03:38:37;;;;;;;7.63;5.93;;;2.70;99.90;;;;;;5071859;28;20214;-72
2022/02/06 03:41:07;;;;;;;8.87;5.93;;;2.60;99.90;;;;;;5072005;28;20731;-71
2022/02/06 03:43:46;;;;;;;9.50;5.63;;;2.50;99.90;;;;;;5071032;28;20206;-70
2022/02/06 03:46:17;;;;;;;8.67;5.73;;;2.50;99.90;;;;;;5072081;28;20630;-70
2022/02/06 03:48:48;;;;;;;8.17;5.77;;;2.50;99.90;;;;;;5071550;28;20314;-69
2022/02/06 03:51:21;;;;;;;8.20;6.33;;;2.40;99.90;;;;;;5071962;28;20210;-69
2022/02/06 03:53:50;;;;;;;8.90;6.27;;;2.40;99.90;;;;;;5071360;28;20206;-69
2022/02/06 03:56:17;;;;;;;7.17;5.13;;;2.40;99.90;;;;;;5071623;28;20202;-76
2022/02/06 03:58:45;;;;;;;7.53;5.57;;;2.50;99.90;;;;;;5071421;28;20214;-69
2022/02/06 04:01:12;;;;;;;11.33;5.63;;;2.50;99.90;;;;;;5071548;28;20237;-73
2022/02/06 04:03:39;;;;;;;6.87;5.83;;;2.50;99.90;;;;;;5071465;28;20626;-70
2022/02/06 04:06:06;;;;;;;9.80;6.40;;;2.50;99.90;;;;;;5071698;28;20206;-72
2022/02/06 04:08:36;;;;;;;11.47;6.73;;;2.50;99.90;;;;;;5071434;28;20214;-71
2022/02/06 04:11:07;;;;;;;13.67;6.47;;;2.40;99.90;;;;;;5071311;28;20674;-72
2022/02/06 04:13:38;;;;;;;7.80;5.80;;;2.40;99.90;;;;;;5071095;28;20205;-71
2022/02/06 04:16:13;;;;;;;8.07;5.73;;;2.30;99.90;;;;;;5071610;28;20245;-73
2022/02/06 04:18:49;;;;;;;11.57;6.97;;;2.40;99.90;;;;;;5070916;28;20263;-73
2022/02/06 04:21:16;;;;;;;9.73;6.17;;;2.40;99.90;;;;;;5071215;28;20241;-73
2022/02/06 04:23:43;;;;;;;8.33;5.77;;;2.40;99.90;;;;;;5070841;28;20256;-74
2022/02/06 04:26:10;;;;;;;15.70;6.17;;;2.30;99.90;;;;;;5071047;28;20202;-73
2022/02/06 04:28:37;;;;;;;7.27;5.30;;;2.40;99.90;;;;;;5070820;28;20256;-71
2022/02/06 04:31:06;;;;;;;8.93;5.97;;;2.40;99.90;;;;;;5071213;28;20210;-71
2022/02/06 04:33:33;;;;;;;7.67;5.97;;;2.50;99.90;;;;;;5070950;28;20268;-73
2022/02/06 04:36:01;;;;;;;11.03;6.07;;;2.60;99.90;;;;;;5071164;28;20209;-72
2022/02/06 04:38:42;;;;;;;5.87;5.37;;;2.60;99.90;;;;;;5071123;28;20220;-73
2022/02/06 04:41:24;;;;;;;5.67;4.77;;;2.70;99.90;;;;;;5070572;28;20247;-72
2022/02/06 04:44:17;;;;;;;6.20;5.40;;;2.80;99.90;;;;;;5070643;28;20214;-73
2022/02/06 05:12:37;;;;;;;8.70;5.47;;;2.30;99.90;;;;;;5070364;28;20225;-72
2022/02/06 05:15:08;;;;;;;8.17;5.93;;;2.20;99.90;;;;;;5070359;28;20213;-76
2022/02/06 05:18:09;;;;;;;7.73;5.03;;;2.20;99.90;;;;;;5070034;28;20202;-72
2022/02/06 05:21:13;;;;;;;11.40;6.13;;;2.20;99.90;;;;;;5070416;28;20261;-70
2022/02/06 05:24:12;;;;;;;9.67;5.40;;;2.20;99.90;;;;;;5070234;28;20205;-70
2022/02/06 05:26:53;;;;;;;9.43;6.13;;;2.10;99.90;;;;;;5069974;28;20285;-70
2022/02/06 05:29:28;;;;;;;9.77;6.13;;;2.10;99.90;;;;;;5070608;28;20224;-73
2022/02/06 05:32:02;;;;;;;8.57;7.10;;;2.10;99.90;;;;;;5070942;28;20295;-73
2022/02/06 05:34:29;;;;;;;8.20;7.37;;;2.00;99.90;;;;;;5070547;28;20669;-72
2022/02/06 05:36:57;;;;;;;8.97;6.47;;;2.00;99.90;;;;;;5070564;28;20214;-72
2022/02/06 05:39:24;;;;;;;12.30;7.03;;;2.00;99.90;;;;;;5070572;28;20206;-71
2022/02/06 05:41:51;;;;;;;11.90;7.03;;;1.90;99.90;;;;;;5070175;28;20256;-72
2022/02/06 05:44:18;;;;;;;11.13;7.03;;;1.90;99.90;;;;;;5070425;28;20210;-72
2022/02/06 05:46:45;;;;;;;9.60;6.57;;;1.90;99.90;;;;;;5070009;28;20259;-71
2022/02/06 05:49:12;;;;;;;9.30;7.13;;;1.90;99.90;;;;;;5070496;28;20287;-74
2022/02/06 05:51:40;;;;;;;9.17;7.30;;;1.90;99.90;;;;;;5070078;28;20275;-80
2022/02/06 05:54:08;;;;;;;9.53;6.80;;;1.90;99.90;;;;;;5070041;28;20202;-71
2022/02/06 05:56:35;;;;;;;6.80;6.20;;;1.90;99.90;;;;;;5069807;28;20674;-71
2022/02/06 05:59:03;;;;;;;8.33;7.53;;;1.80;99.90;;;;;;5070451;28;20259;-70
2022/02/06 06:01:31;;;;;;;11.93;6.03;;;1.90;99.90;;;;;;5069298;28;20771;-71
2022/02/06 06:03:58;;;;;;;7.47;6.07;;;1.80;99.90;;;;;;5070421;28;20202;-78
2022/02/06 06:06:25;;;;;;;11.03;7.43;;;1.80;99.90;;;;;;5072093;28;20224;-70
2022/02/06 06:08:52;;;;;;;13.67;7.23;;;1.80;99.90;;;;;;5073758;28;20255;-77
2022/02/06 06:11:20;;;;;;;10.57;7.43;;;1.80;99.90;;;;;;5074094;28;20206;-74
2022/02/06 06:13:47;;;;;;;8.43;6.77;;;1.80;99.90;;;;;;5073543;28;20570;-76
2022/02/06 06:16:14;;;;;;;8.83;6.80;;;1.80;99.90;;;;;;5073606;28;20206;-73
2022/02/06 06:18:41;;;;;;;11.43;6.83;;;1.80;99.90;;;;;;5073452;28;20724;-83
2022/02/06 06:21:10;;;;;;;8.47;7.30;;;1.70;99.90;;;;;;5073933;28;20310;-73
2022/02/06 06:23:42;;;;;;;8.47;6.93;;;1.70;99.90;;;;;;5073554;28;20259;-74
2022/02/06 06:26:11;;;;;;;8.37;7.03;;;1.70;99.90;;;;;;5073933;28;20275;-83
2022/02/06 06:28:39;;;;;;;11.67;8.07;;;1.70;99.90;;;;;;5073426;28;20721;-83
2022/02/06 06:31:06;;;;;;;9.87;7.57;;;1.70;99.90;;;;;;5073487;28;20202;-72
2022/02/06 06:33:33;;;;;;;9.27;6.77;;;1.60;99.90;;;;;;5073106;28;20268;-74
2022/02/06 06:36:00;;;;;;;12.23;7.63;;;1.70;99.90;;;;;;5071129;28;20210;-75
2022/02/06 06:38:27;;;;;;;9.23;7.23;;;1.70;99.90;;;;;;5086593;28;20218;-75
2022/02/06 06:40:54;;;;;;;12.20;7.37;;;1.70;99.90;;;;;;5088293;28;20303;-75
2022/02/06 06:43:21;;;;;;;7.17;6.20;;;1.70;99.90;;;;;;5093336;28;20677;-79
2022/02/06 06:45:50;;;;;;;12.50;7.70;;;1.70;99.90;;;;;;5092581;28;20638;-75
2022/02/06 06:48:18;;;;;;;10.80;6.93;;;1.60;99.90;;;;;;5093565;28;20288;-75
2022/02/06 06:50:45;;;;;;;8.37;7.57;;;1.70;99.90;;;;;;5092331;28;20209;-81
2022/02/06 06:53:13;;;;;;;10.17;7.00;;;1.70;99.90;;;;;;5092423;28;20213;-74
2022/02/06 06:55:43;;;;;;;10.87;8.53;;;1.70;99.90;;;;;;5092568;28;20675;-73
2022/02/06 06:58:14;;;;;;;10.97;7.67;;;1.60;99.90;;;;;;5093051;28;20205;-78
2022/02/06 07:00:54;;;;;;;9.93;8.00;;;1.60;99.90;;;;;;5092316;28;20722;-79
2022/02/06 07:03:23;;;;;;;10.60;8.53;;;1.60;99.90;;;;;;5093226;28;20201;-81
2022/02/06 07:05:50;;;;;;;11.63;7.20;;;1.50;99.90;;;;;;5092102;28;20209;-76
2022/02/06 07:08:19;;;;;;;9.03;6.97;;;1.60;99.90;;;;;;5092916;28;20209;-82
2022/02/06 07:10:46;;;;;;;11.70;7.47;;;1.60;99.90;;;;;;5092482;28;20237;-74
2022/02/06 07:13:14;;;;;;;12.77;7.73;;;1.60;99.90;;;;;;5092937;28;20273;-75
2022/02/06 07:15:41;;;;;;;12.07;8.83;;;1.60;99.90;;;;;;5092072;28;20197;-77
2022/02/06 07:18:08;;;;;;;9.23;8.33;;;1.70;99.90;;;;;;5091858;28;20254;-76
2022/02/06 07:20:37;;;;;;;10.60;7.97;;;1.70;99.90;;;;;;5091890;28;20712;-76
2022/02/06 07:23:05;;;;;;;8.93;7.40;;;1.70;99.90;;;;;;5092760;28;20265;-77
2022/02/06 07:25:33;;;;;;;17.10;14.70;;;1.70;99.90;;;;;;5092199;28;20271;-77
2022/02/06 07:28:00;;;;;;;14.30;10.37;;;1.70;99.90;;;;;;5091837;28;20624;-75
2022/02/06 07:30:27;;;;;;;13.10;9.97;;;1.80;99.90;;;;;;5090869;28;20338;-74
2022/02/06 07:32:54;;;;;;;13.37;9.53;;;2.00;99.90;;;;;;5092505;28;20286;-79
2022/02/06 07:35:21;;;;;;;10.87;9.07;;;2.00;99.90;;;;;;5077699;28;20260;-80
2022/02/06 07:37:55;;;;;;;11.23;8.83;;;2.40;99.90;;;;;;5090874;28;20662;-75
2022/02/06 07:40:22;;;;;;;11.57;8.27;;;2.60;99.90;;;;;;5092273;28;20257;-74
2022/02/06 07:42:49;;;;;;;9.67;8.67;;;3.10;99.90;;;;;;5091892;28;20210;-73
2022/02/06 07:45:17;;;;;;;9.03;8.13;;;4.10;99.90;;;;;;5092180;28;20212;-73
2022/02/06 07:47:46;;;;;;;9.57;8.47;;;4.50;1.00;;;;;;5091595;28;20201;-74
2022/02/06 07:50:15;;;;;;;11.87;9.57;;;4.80;1.00;;;;;;5091740;28;20205;-74
2022/02/06 07:52:42;;;;;;;10.97;9.80;;;5.70;1.00;;;;;;5091766;28;20258;-80
2022/02/06 07:55:11;;;;;;;8.47;7.60;;;6.10;1.00;;;;;;5091923;28;20201;-74
2022/02/06 07:57:39;;;;;;;10.40;9.33;;;6.30;1.00;;;;;;5091719;28;20201;-83
2022/02/06 08:00:09;;;;;;;12.70;8.63;;;4.90;1.00;;;;;;5091932;28;20213;-82
2022/02/06 08:02:36;;;;;;;8.83;7.60;;;4.40;1.00;;;;;;5091227;28;20725;-78
2022/02/06 08:05:03;;;;;;;13.23;9.53;;;4.80;1.00;;;;;;5092352;28;20205;-82
2022/02/06 08:07:32;;;;;;;11.87;6.40;;;4.60;1.00;;;;;;5091631;28;20263;-79
2022/02/06 08:10:01;;;;;;;9.23;7.37;;;4.00;1.00;;;;;;5091558;28;20220;-77
2022/02/06 08:12:32;;;;;;;17.97;10.17;;;3.80;1.00;;;;;;5091971;28;20212;-76
2022/02/06 08:15:03;;;;;;;7.03;5.53;;;4.30;1.00;;;;;;5091737;28;20206;-76
2022/02/06 08:17:32;;;;;;;8.60;6.33;;;5.00;1.00;;;;;;5090961;28;20201;-75
2022/02/06 08:20:01;;;;;;;27.33;20.83;;;5.80;1.00;;;;;;5091768;28;20342;-77
2022/02/06 08:22:29;;;;;;;10.87;9.70;;;6.70;1.00;;;;;;5091390;28;20708;-75
2022/02/06 08:24:56;;;;;;;10.17;6.20;;;7.90;1.00;;;;;;5091926;28;20232;-75
2022/02/06 08:27:25;;;;;;;6.20;5.00;;;7.60;1.00;;;;;;5090867;28;20205;-80
2022/02/06 08:29:54;;;;;;;6.90;5.33;;;6.30;1.00;;;;;;5085725;28;20251;-74
2022/02/06 08:32:23;;;;;;;8.97;5.90;;;5.60;1.00;;;;;;5090926;28;20219;-75
2022/02/06 08:34:51;;;;;;;9.27;8.33;;;5.10;1.00;;;;;;5091009;28;20267;-79
2022/02/06 08:37:18;;;;;;;8.60;7.53;;;5.00;1.00;;;;;;5090930;28;20213;-74
2022/02/06 08:39:45;;;;;;;7.10;5.77;;;5.60;1.00;;;;;;5063521;28;20674;-75
2022/02/06 08:42:14;;;;;;;8.77;7.87;;;5.70;1.00;;;;;;5083386;28;20229;-77
2022/02/06 08:44:43;;;;;;;10.73;6.93;;;5.80;1.00;;;;;;5079875;28;20264;-74
2022/02/06 08:47:12;;;;;;;8.40;5.93;;;6.20;1.00;;;;;;5070699;28;20665;-82
2022/02/06 08:49:40;;;;;;;9.33;6.47;;;7.00;1.00;;;;;;5070593;28;20271;-74
2022/02/06 08:52:09;;;;;;;17.53;13.70;;;8.00;1.00;;;;;;5069785;28;20252;-75
2022/02/06 08:54:38;;;;;;;12.37;11.00;;;8.40;1.00;;;;;;5070600;28;20740;-75
2022/02/06 08:57:13;;;;;;;5.50;4.80;;;8.40;1.00;;;;;;5070663;28;20300;-74
2022/02/06 08:59:40;;;;;;;5.67;5.13;;;7.70;1.00;;;;;;5070642;28;20677;-80
2022/02/06 09:02:07;;;;;;;9.37;7.33;;;7.10;1.00;;;;;;5070510;28;20234;-74
2022/02/06 09:04:35;;;;;;;10.50;4.83;;;7.10;1.00;;;;;;5070536;28;20198;-76
2022/02/06 09:07:03;;;;;;;6.20;5.00;;;7.40;1.00;;;;;;5070791;28;20738;-75
2022/02/06 09:09:30;;;;;;;5.80;4.27;;;8.00;1.00;;;;;;5070563;28;20198;-74
2022/02/06 09:11:59;;;;;;;11.50;7.05;;;8.70;1.00;;;;;;5068697;28;20854;-74
2022/02/06 09:14:27;;;;;;;5.83;3.90;;;10.70;1.00;;;;;;5071117;28;20293;-85
2022/02/06 09:16:55;;;;;;;36.63;21.67;;;10.60;1.00;;;;;;5054377;28;20290;-86
2022/02/06 09:19:22;;;;;;;10.83;7.37;;;10.80;1.00;;;;;;5050851;28;20225;-78
2022/02/06 09:21:51;;;;;;;8.30;5.43;;;9.40;1.00;;;;;;5049671;28;20288;-75
2022/02/06 09:24:20;;;;;;;5.97;4.80;;;9.50;1.00;;;;;;5051768;28;20260;-75
2022/02/06 09:26:47;;;;;;;6.63;5.07;;;9.50;1.00;;;;;;5077335;28;20201;-84
2022/02/06 09:29:15;;;;;;;8.53;6.23;;;9.10;1.00;;;;;;5077098;28;20203;-82
2022/02/06 09:31:42;;;;;;;5.07;4.57;;;10.50;1.00;;;;;;5073598;28;20202;-83
2022/02/06 09:36:35;;;;;;;10.57;7.57;;;12.00;1.00;;;;;;5073344;28;20210;-80
2022/02/06 09:39:08;;;;;;;5.60;4.97;;;12.40;1.00;;;;;;5070124;28;20202;-83
2022/02/06 09:41:36;;;;;;;10.47;5.57;;;11.70;1.00;;;;;;5071529;28;20274;-77
2022/02/06 09:44:03;;;;;;;7.87;5.13;;;12.80;1.00;;;;;;5073656;28;20255;-82
2022/02/06 09:46:33;;;;;;;6.03;4.60;;;12.20;1.00;;;;;;5072583;28;20198;-74
2022/02/06 09:49:01;;;;;;;6.95;5.68;;;12.30;1.00;;;;;;5074392;28;20255;-75
2022/02/06 09:51:28;;;;;;;9.77;6.93;;;12.50;1.00;;;;;;5074994;28;20202;-82
2022/02/06 09:53:57;;;;;;;12.43;7.05;;;13.30;1.00;;;;;;5074645;28;20634;-79
2022/02/06 09:56:27;;;;;;;7.85;6.32;;;15.20;1.00;;;;;;5074844;28;20205;-84
2022/02/06 09:59:02;;;;;;;7.88;5.53;;;15.20;1.00;;;;;;5074030;28;20198;-75
2022/02/06 10:01:32;;;;;;;5.65;4.35;;;15.60;1.00;;;;;;5074006;28;20279;-74
2022/02/06 10:04:04;;;;;;;9.70;4.85;;;17.30;99.90;;;;;;5074464;28;20206;-73
2022/02/06 10:06:42;;;;;;;6.30;4.20;;;18.10;99.90;;;;;;5074076;28;20267;-77
2022/02/06 10:09:14;;;;;;;4.95;3.55;;;17.90;99.90;;;;;;5073552;28;20206;-84
2022/02/06 10:11:47;;;;;;;6.72;3.83;;;18.10;99.90;;;;;;5072545;28;20206;-82
2022/02/06 10:14:14;;;;;;;5.13;3.10;;;18.80;99.90;;;;;;5053668;28;20241;-75
2022/02/06 10:16:41;;;;;;;5.32;3.33;;;19.50;99.90;;;;;;5053432;28;20207;-73
2022/02/06 10:19:09;;;;;;;6.90;4.15;;;20.10;99.90;;;;;;5054178;28;20203;-74
2022/02/06 10:21:36;;;;;;;6.38;3.22;;;20.50;99.90;;;;;;5053862;28;20690;-79
2022/02/06 10:24:10;;;;;;;4.63;3.58;;;20.50;99.90;;;;;;5054095;28;20260;-85
2022/02/06 10:26:41;;;;;;;5.07;3.38;;;20.40;99.90;;;;;;5053450;28;20632;-84
2022/02/06 10:29:25;;;;;;;5.95;4.10;;;20.30;99.90;;;;;;5053673;28;20206;-84
2022/02/06 10:31:55;;;;;;;6.60;3.30;;;20.00;99.90;;;;;;5053506;28;20677;-85
2022/02/06 10:34:24;;;;;;;5.90;3.72;;;20.10;99.90;;;;;;5053923;28;20667;-73
2022/02/06 10:36:51;;;;;;;4.85;2.90;;;18.00;99.90;;;;;;5053183;28;20206;-85
2022/02/06 10:39:23;;;;;;;5.65;2.92;;;16.60;99.90;;;;;;5053941;28;20545;-84
2022/02/06 10:41:51;;;;;;;6.20;3.50;;;13.80;99.90;;;;;;5053411;28;20292;-84
2022/02/06 10:44:20;;;;;;;5.93;2.90;;;11.40;99.90;;;;;;5053540;28;20294;-81
2022/02/06 10:46:54;;;;;;;3.88;3.33;;;10.30;99.90;;;;;;5053425;28;20207;-84
2022/02/06 10:49:22;;;;;;;5.22;2.92;;;10.00;1.00;;;;;;5053274;28;20635;-79
2022/02/06 10:51:51;;;;;;;9.50;2.97;;;9.90;1.00;;;;;;5053044;28;20207;-84
2022/02/06 10:54:25;;;;;;;6.70;3.72;;;10.10;1.00;;;;;;5056270;28;20572;-83
2022/02/06 10:57:00;;;;;;;6.53;3.80;;;10.10;1.00;;;;;;5052932;28;20202;-84
2022/02/06 10:59:36;;;;;;;6.25;3.03;;;10.10;1.00;;;;;;5053754;28;20605;-84
2022/02/06 11:02:07;;;;;;;5.33;2.93;;;10.30;1.00;;;;;;5053097;28;20287;-74
2022/02/06 11:04:36;;;;;;;7.23;3.10;;;10.30;1.00;;;;;;5053064;28;20207;-83
2022/02/06 11:07:15;;;;;;;4.67;3.20;;;10.40;1.00;;;;;;5053275;28;20260;-82
2022/02/06 11:09:42;;;;;;;5.67;3.23;;;10.50;1.00;;;;;;5052856;28;20213;-84
2022/02/06 11:12:14;;;;;;;4.30;2.73;;;10.40;1.00;;;;;;5053020;28;20257;-73
2022/02/06 11:14:47;;;;;;;5.70;3.10;;;10.60;1.00;;;;;;5052729;28;20261;-83
2022/02/06 11:17:20;;;;;;;5.90;2.77;;;10.90;1.00;;;;;;5053158;28;20222;-84
2022/02/06 11:20:07;;;;;;;9.47;2.73;;;11.10;1.00;;;;;;5052814;28;20233;-74
2022/02/06 11:22:38;;;;;;;6.20;2.87;;;11.30;1.00;;;;;;5072719;28;20222;-83
2022/02/06 11:25:07;;;;;;;5.97;2.27;;;11.40;1.00;;;;;;5076870;28;20589;-73
2022/02/06 11:27:35;;;;;;;6.10;3.57;;;11.40;1.00;;;;;;5082812;28;20284;-75
2022/02/06 11:30:05;;;;;;;5.67;2.43;;;11.40;1.00;;;;;;5083689;28;20738;-75
2022/02/06 11:32:31;;;;;;;7.80;2.27;;;11.50;1.00;;;;;;5091335;28;20254;-73
2022/02/06 11:35:03;;;;;;;13.57;2.37;;;11.50;1.00;;;;;;5087964;28;20218;-75
2022/02/06 11:43:51;;;;;;;3.23;1.43;;;11.60;1.00;;;;;;5062764;28;20804;-83
2022/02/06 11:46:29;;;;;;;9.43;1.80;;;11.60;1.00;;;;;;5072399;28;20209;-83
2022/02/06 11:49:10;;;;;;;5.47;1.67;;;11.70;1.00;;;;;;5071535;28;20259;-83
2022/02/06 11:51:37;;;;;;;8.03;1.80;;;11.90;99.90;;;;;;5072101;28;20249;-83
2022/02/06 11:54:30;;;;;;;5.87;1.93;;;12.00;99.90;;;;;;5072283;28;20198;-80
2022/02/06 11:57:19;;;;;;;6.03;2.50;;;12.00;99.90;;;;;;5072384;28;20206;-79
2022/02/06 12:00:18;;;;;;;1.83;1.70;;;12.00;1.00;;;;;;5071800;28;20255;-75
2022/02/06 12:02:48;;;;;;;5.43;1.30;;;12.30;99.90;;;;;;5070739;28;20324;-75
2022/02/06 12:05:23;;;;;;;7.63;2.28;;;12.20;99.90;;;;;;5050926;28;20277;-74
2022/02/06 12:08:04;;;;;;;3.17;1.67;;;12.00;99.90;;;;;;5051608;28;20207;-86
2022/02/06 12:11:17;;;;;;;2.45;1.75;;;12.00;99.90;;;;;;5066873;28;20293;-72
2022/02/06 12:13:45;;;;;;;4.70;1.30;;;12.10;1.00;;;;;;5072070;28;20260;-92
2022/02/06 12:16:26;;;;;;;2.78;1.17;;;12.10;99.90;;;;;;5072882;28;20300;-73
2022/02/06 12:18:54;;;;;;;4.93;1.67;;;12.20;1.00;;;;;;5072888;28;20208;-93
2022/02/06 12:21:23;;;;;;;3.85;2.22;;;12.30;1.00;;;;;;5074295;28;20289;-72
2022/02/06 12:23:54;;;;;;;5.35;1.50;;;12.30;1.00;;;;;;5071492;28;20252;-72
2022/02/06 12:26:46;;;;;;;2.90;0.95;;;12.30;1.00;;;;;;5072107;28;20202;-72
2022/02/06 12:29:22;;;;;;;4.57;2.20;;;11.80;1.00;;;;;;5072795;28;20206;-83
2022/02/06 12:32:01;;;;;;;5.68;1.63;;;11.90;99.90;;;;;;5072398;28;20217;-72
2022/02/06 12:37:38;;;;;;;3.47;1.43;;;12.00;99.90;;;;;;5072372;28;20220;-75
2022/02/06 12:40:08;;;;;;;2.70;1.23;;;11.70;1.00;;;;;;5071448;28;20206;-72
2022/02/06 12:42:39;;;;;;;4.17;1.00;;;11.80;1.00;;;;;;5070908;28;20276;-79
2022/02/06 12:45:10;;;;;;;3.90;1.13;;;11.90;1.00;;;;;;5071314;28;20210;-82
2022/02/06 12:47:42;;;;;;;1.67;0.93;;;11.90;99.90;;;;;;5070460;28;20226;-74
2022/02/06 12:50:19;;;;;;;1.73;1.07;;;12.10;1.00;;;;;;5069811;28;20206;-74
2022/02/06 12:52:47;;;;;;;2.55;0.93;;;12.00;1.00;;;;;;5070470;28;20730;-84
2022/02/06 12:55:15;;;;;;;2.70;1.25;;;12.00;1.00;;;;;;5071233;28;20210;-74
2022/02/06 12:57:44;;;;;;;8.00;2.05;;;12.20;1.00;;;;;;5070566;28;20633;-81
2022/02/06 13:00:23;;;;;;;2.63;1.00;;;11.90;99.90;;;;;;5070625;28;20270;-75
2022/02/06 13:02:50;;;;;;;3.28;1.52;;;12.00;99.90;;;;;;5076048;28;20232;-74
2022/02/06 13:05:19;;;;;;;3.37;1.30;;;12.10;1.00;;;;;;5082043;28;20223;-72
2022/02/06 13:07:46;;;;;;;9.43;2.35;;;12.10;99.90;;;;;;5077172;28;20565;-74
2022/02/06 13:10:15;;;;;;;1.33;0.73;;;12.10;1.00;;;;;;5068255;28;20199;-73
2022/02/06 13:12:51;;;;;;;2.58;0.90;;;11.90;99.90;;;;;;5074745;28;20290;-73
2022/02/06 13:15:41;;;;;;;4.10;1.23;;;11.90;99.90;;;;;;5077394;28;20241;-78
2022/02/06 13:21:16;;;;;;;2.33;1.20;;;11.80;1.00;;;;;;5070115;28;20682;-78
2022/02/06 13:24:09;;;;;;;6.32;1.13;;;11.80;99.90;;;;;;5072781;28;20226;-73
2022/02/06 13:26:45;;;;;;;2.08;1.13;;;11.80;99.90;;;;;;5070134;28;20206;-73
2022/02/06 13:29:22;;;;;;;4.72;1.05;;;12.00;99.90;;;;;;5071929;28;20207;-78
2022/02/06 13:32:16;;;;;;;1.95;1.17;;;11.90;99.90;;;;;;5077330;28;20700;-82
2022/02/06 13:34:56;;;;;;;2.92;1.10;;;11.90;99.90;;;;;;5072684;28;20214;-72
2022/02/06 13:37:32;;;;;;;2.63;1.00;;;11.80;99.90;;;;;;5082826;28;20219;-80
2022/02/06 13:40:15;;;;;;;2.37;1.00;;;11.70;99.90;;;;;;5090640;28;20258;-73
2022/02/06 13:42:56;;;;;;;2.28;0.70;;;11.80;99.90;;;;;;5076183;28;20226;-74
2022/02/06 13:45:24;;;;;;;3.10;1.30;;;11.70;99.90;;;;;;5090879;28;20209;-75
2022/02/06 13:47:52;;;;;;;2.97;1.00;;;11.80;99.90;;;;;;5075029;28;20259;-90
2022/02/06 13:50:19;;;;;;;2.85;1.02;;;11.80;99.90;;;;;;5069431;28;20252;-78
2022/02/06 13:52:48;;;;;;;4.75;1.25;;;11.70;99.90;;;;;;5082476;28;20206;-75
2022/02/06 13:55:16;;;;;;;2.10;0.90;;;11.70;99.90;;;;;;5090227;28;20734;-75
2022/02/06 13:57:46;;;;;;;1.05;0.70;;;11.70;99.90;;;;;;5084190;28;20638;-89
2022/02/06 14:00:16;;;;;;;1.87;0.67;;;11.70;99.90;;;;;;5069856;28;20305;-85
2022/02/06 14:02:53;;;;;;;4.37;1.73;;;11.80;99.90;;;;;;5068292;28;20242;-77
2022/02/06 14:05:22;;;;;;;1.47;0.80;;;11.60;99.90;;;;;;5070797;28;20209;-78
2022/02/06 14:08:04;;;;;;;1.03;0.67;;;11.60;99.90;;;;;;5072358;28;20301;-76
2022/02/06 14:10:43;;;;;;;1.13;0.60;;;11.40;99.90;;;;;;5069504;28;20198;-76
2022/02/06 14:13:22;;;;;;;3.23;0.90;;;11.40;99.90;;;;;;5070818;28;20198;-76
2022/02/06 14:15:49;;;;;;;2.60;0.80;;;11.40;99.90;;;;;;5070360;28;20743;-75
2022/02/06 14:18:16;;;;;;;2.73;1.73;;;11.30;99.90;;;;;;5068711;28;20701;-93
2022/02/06 14:20:56;;;;;;;4.90;2.30;;;11.40;1.00;;;;;;5069970;28;20253;-91
2022/02/06 14:23:25;;;;;;;1.20;0.80;;;11.50;99.90;;;;;;5070721;28;20328;-78
2022/02/06 14:25:52;;;;;;;1.63;0.63;;;11.50;99.90;;;;;;5070003;28;20260;-75
2022/02/06 14:28:21;;;;;;;1.67;0.87;;;11.50;1.00;;;;;;5073067;28;20213;-75
2022/02/06 14:30:48;;;;;;;1.13;0.73;;;11.40;1.00;;;;;;5073627;28;20617;-94
2022/02/06 14:33:21;;;;;;;0.80;0.80;;;11.40;99.90;;;;;;5073999;28;20595;-80
2022/02/06 14:35:52;;;;;;;1.63;1.03;;;11.30;99.90;;;;;;5073862;28;20593;-76